Time;durP1;ratioP1;P1;durP2;ratioP2;P2;SDS_P1;SDS_P2;PMS_P1;PMS_P2;Temp;Humidity;BMP_temperature;BMP_pressure;BME280_temperature;BME280_humidity;BME280_pressure;Samples;Min_cycle;Max_cycle;Signal;HPM_P1;HPM_P2
2023/09/07 00:00:05;;;;;;;16.80;15.35;;;;;;;19.91;55.30;101050.16;5012244;28;97306;-84
2023/09/07 00:02:38;;;;;;;16.25;14.35;;;;;;;19.96;55.67;101065.88;5008120;28;96846;-84
2023/09/07 00:05:06;;;;;;;21.75;19.80;;;;;;;19.83;55.42;101044.44;5011309;28;98972;-84
2023/09/07 00:07:31;;;;;;;22.42;20.42;;;;;;;19.86;55.44;101050.44;5012216;28;98254;-84
2023/09/07 00:09:57;;;;;;;21.40;19.40;;;;;;;19.93;55.45;101061.59;5011789;28;96725;-83
2023/09/07 00:12:22;;;;;;;21.02;19.42;;;;;;;19.92;55.57;101067.00;5012381;28;96829;-84
2023/09/07 00:14:48;;;;;;;23.90;21.90;;;;;;;19.91;55.68;101063.47;5011392;28;99047;-84
2023/09/07 00:17:13;;;;;;;19.90;18.42;;;;;;;19.87;55.60;101064.63;5012029;28;98476;-84
2023/09/07 00:19:39;;;;;;;20.15;18.45;;;;;;;19.84;55.61;101067.47;5011484;28;96879;-84
2023/09/07 00:22:04;;;;;;;18.27;16.88;;;;;;;19.83;55.36;101074.59;5011271;28;97155;-83
2023/09/07 00:24:31;;;;;;;20.15;18.35;;;;;;;19.75;55.58;101066.25;5014482;28;99196;-83
2023/09/07 00:26:57;;;;;;;19.95;18.35;;;;;;;19.66;55.62;101053.44;5010655;28;98396;-84
2023/09/07 00:29:23;;;;;;;19.17;17.40;;;;;;;19.63;55.53;101056.28;5015929;28;96731;-84
2023/09/07 00:31:49;;;;;;;21.40;19.50;;;;;;;19.63;55.63;101059.81;5011813;28;96824;-84
2023/09/07 00:34:14;;;;;;;21.02;19.27;;;;;;;19.61;55.72;101064.38;5011671;28;97723;-84
2023/09/07 00:36:39;;;;;;;21.98;20.13;;;;;;;19.62;55.63;101059.88;5010477;28;98527;-84
2023/09/07 00:39:05;;;;;;;20.17;18.50;;;;;;;19.60;55.79;101057.31;5010662;28;96789;-83
2023/09/07 00:41:31;;;;;;;21.25;19.58;;;;;;;19.57;55.75;101057.50;5001586;28;97061;-84
2023/09/07 00:43:56;;;;;;;22.08;20.30;;;;;;;19.42;55.67;101037.13;5010835;28;99198;-83
2023/09/07 00:46:22;;;;;;;21.50;19.60;;;;;;;19.53;55.80;101063.97;5000990;28;98349;-84
2023/09/07 00:48:48;;;;;;;22.35;20.08;;;;;;;19.48;55.82;101058.03;5010157;28;96941;-83
2023/09/07 00:51:14;;;;;;;21.48;19.58;;;;;;;19.42;55.77;101050.44;5010758;28;97100;-83
2023/09/07 00:53:40;;;;;;;21.58;19.52;;;;;;;19.45;56.06;101056.41;5010693;28;98586;-83
2023/09/07 00:56:06;;;;;;;20.27;18.58;;;;;;;19.41;56.04;101051.38;5012081;28;98576;-83
2023/09/07 00:58:33;;;;;;;20.25;18.45;;;;;;;19.34;56.05;101042.03;5015197;28;96790;-84
2023/09/07 01:00:59;;;;;;;20.40;18.70;;;;;;;19.36;56.14;101056.13;5007509;28;96902;-84
2023/09/07 01:03:24;;;;;;;21.55;19.35;;;;;;;19.29;56.18;101049.47;5013916;28;100249;-83
2023/09/07 01:05:58;;;;;;;20.60;18.67;;;;;;;19.33;56.25;101051.84;5014213;28;98591;-83
2023/09/07 01:08:27;;;;;;;22.38;20.02;;;;;;;19.28;56.39;101042.41;5010350;28;96803;-84
2023/09/07 01:10:53;;;;;;;20.58;18.60;;;;;;;19.29;56.41;101046.81;4993699;28;97495;-83
2023/09/07 01:13:19;;;;;;;20.65;18.95;;;;;;;19.30;56.58;101051.16;5009893;28;100561;-84
2023/09/07 01:15:46;;;;;;;21.88;19.10;;;;;;;19.11;56.59;101030.06;5010869;28;98434;-82
2023/09/07 01:18:13;;;;;;;21.30;19.70;;;;;;;19.22;56.54;101056.91;5011072;28;96987;-84
2023/09/07 01:20:40;;;;;;;21.77;20.08;;;;;;;19.13;56.57;101044.16;5009878;28;96855;-83
2023/09/07 01:23:07;;;;;;;21.63;19.92;;;;;;;19.15;56.58;101064.41;5008776;28;98179;-84
2023/09/07 01:25:32;;;;;;;21.52;19.70;;;;;;;19.10;56.74;101057.66;5006063;28;98258;-84
2023/09/07 01:27:58;;;;;;;21.00;19.23;;;;;;;19.10;56.84;101061.16;5010234;28;96788;-84
2023/09/07 01:30:27;;;;;;;19.98;18.27;;;;;;;19.01;56.91;101040.41;5010833;28;96936;-84
2023/09/07 01:32:52;;;;;;;21.50;19.50;;;;;;;19.11;57.06;101062.91;5012884;28;97805;-83
2023/09/07 01:35:21;;;;;;;23.02;21.23;;;;;;;18.98;57.13;101041.44;5012863;28;99326;-84
2023/09/07 01:37:47;;;;;;;21.40;19.25;;;;;;;19.05;57.20;101049.91;4997070;28;97206;-84
2023/09/07 01:40:13;;;;;;;22.67;20.77;;;;;;;19.04;57.17;101056.19;5014330;28;96775;-84
2023/09/07 01:42:39;;;;;;;22.83;20.92;;;;;;;19.05;57.22;101057.03;5013783;28;99116;-83
2023/09/07 01:45:05;;;;;;;23.00;21.05;;;;;;;19.01;57.18;101053.72;5014081;28;98400;-84
2023/09/07 01:47:31;;;;;;;22.05;20.27;;;;;;;18.85;57.42;101035.13;5013155;28;96789;-84
2023/09/07 01:49:56;;;;;;;23.40;21.58;;;;;;;18.94;57.52;101049.72;5014163;28;96850;-84
2023/09/07 01:52:22;;;;;;;21.60;19.85;;;;;;;18.85;57.72;101047.53;5011879;28;99755;-84
2023/09/07 01:54:48;;;;;;;23.42;21.30;;;;;;;18.84;57.69;101045.84;5013720;28;98374;-84
2023/09/07 01:57:13;;;;;;;23.10;21.25;;;;;;;18.77;57.51;101048.00;5014361;28;97166;-83
2023/09/07 01:59:39;;;;;;;23.92;21.85;;;;;;;18.70;57.85;101038.59;5013233;28;96841;-83
2023/09/07 02:02:05;;;;;;;24.05;22.15;;;;;;;18.74;57.91;101051.69;5014139;28;98910;-84
2023/09/07 02:04:30;;;;;;;24.58;22.45;;;;;;;18.71;58.01;101050.97;5013752;28;98328;-84
2023/09/07 02:06:56;;;;;;;11.82;6.75;;;;;;;18.67;58.17;101058.25;5013760;28;96967;-84
2023/09/07 02:09:21;;;;;;;16.92;8.30;;;;;;;18.65;58.07;101054.84;5014153;28;97103;-84
2023/09/07 02:11:47;;;;;;;7.78;5.80;;;;;;;18.58;58.37;101072.06;5013731;28;98821;-84
2023/09/07 02:14:12;;;;;;;14.45;7.05;;;;;;;18.53;58.40;101050.22;5013789;28;98522;-84
2023/09/07 02:16:39;;;;;;;10.23;6.85;;;;;;;18.51;58.50;101055.59;5010551;28;96894;-84
2023/09/07 02:19:06;;;;;;;9.73;6.68;;;;;;;18.42;58.71;101048.13;5012830;28;97043;-84
2023/09/07 02:21:32;;;;;;;9.27;6.03;;;;;;;18.45;58.86;101066.56;5012332;28;99075;-84
2023/09/07 02:23:57;;;;;;;8.80;6.32;;;;;;;18.37;58.94;101063.47;5012522;28;100514;-84
2023/09/07 02:26:23;;;;;;;11.27;6.53;;;;;;;18.32;59.18;101058.44;5014060;28;96722;-84
2023/09/07 02:28:48;;;;;;;9.70;6.15;;;;;;;18.35;59.23;101073.31;5013193;28;96908;-84
2023/09/07 02:31:14;;;;;;;10.75;6.55;;;;;;;18.31;59.05;101062.00;5013213;28;98950;-84
2023/09/07 02:33:39;;;;;;;9.80;6.78;;;;;;;18.27;59.16;101060.47;5013435;28;97495;-83
2023/09/07 02:36:05;;;;;;;14.43;6.43;;;;;;;18.30;59.60;101072.75;5012515;28;96845;-83
2023/09/07 02:38:32;;;;;;;12.73;6.40;;;;;;;18.27;59.61;101068.44;5012320;28;97184;-84
2023/09/07 02:40:59;;;;;;;10.88;6.40;;;;;;;18.10;60.24;101072.00;5011894;28;100541;-83
2023/09/07 02:43:24;;;;;;;15.55;7.10;;;;;;;18.10;60.19;101068.50;5012807;28;98617;-83
2023/09/07 02:45:50;;;;;;;9.20;7.45;;;;;;;18.09;60.13;101067.66;5013264;28;97060;-84
2023/09/07 02:48:17;;;;;;;13.05;9.30;;;;;;;18.12;60.18;101068.41;5013005;28;97538;-84
2023/09/07 02:50:45;;;;;;;19.63;13.93;;;;;;;17.98;60.70;101066.50;5000554;28;100869;-83
2023/09/07 02:53:10;;;;;;;17.25;13.85;;;;;;;17.96;60.33;101055.94;4995334;28;99726;-84
2023/09/07 02:55:39;;;;;;;14.27;8.88;;;;;;;17.97;60.43;101055.00;5011361;28;97316;-83
2023/09/07 02:58:04;;;;;;;12.65;10.60;;;;;;;18.04;60.39;101072.34;5012129;28;97027;-83
2023/09/07 03:00:30;;;;;;;16.10;14.65;;;;;;;18.01;60.35;101072.50;5010970;28;100918;-84
2023/09/07 03:02:56;;;;;;;9.98;7.60;;;;;;;18.02;60.54;101071.56;5011800;28;100118;-84
2023/09/07 03:05:22;;;;;;;13.30;6.97;;;;;;;18.02;60.57;101068.91;5011775;28;96987;-84
2023/09/07 03:07:47;;;;;;;14.07;8.75;;;;;;;17.97;60.69;101070.94;5012038;28;97386;-84
2023/09/07 03:10:14;;;;;;;13.63;11.02;;;;;;;17.92;60.61;101066.81;5011506;28;100573;-83
2023/09/07 03:12:42;;;;;;;15.18;13.40;;;;;;;17.90;60.53;101058.06;5012017;28;99947;-83
2023/09/07 03:15:08;;;;;;;15.90;8.27;;;;;;;17.92;60.80;101077.41;5011558;28;96942;-83
2023/09/07 03:17:34;;;;;;;9.07;6.53;;;;;;;17.90;60.55;101064.25;5011843;28;96795;-84
2023/09/07 03:20:01;;;;;;;18.80;12.80;;;;;;;17.90;60.86;101066.03;5010390;28;100359;-84
2023/09/07 03:22:28;;;;;;;15.82;14.25;;;;;;;17.85;60.92;101064.47;5010532;28;99977;-83
2023/09/07 03:24:53;;;;;;;11.98;7.65;;;;;;;17.88;60.66;101066.97;4994818;28;96844;-83
2023/09/07 03:27:20;;;;;;;12.40;8.30;;;;;;;17.83;60.67;101061.06;5013304;28;96859;-84
2023/09/07 03:29:51;;;;;;;13.50;7.85;;;;;;;17.85;60.88;101064.47;4994228;28;100576;-84
2023/09/07 03:32:17;;;;;;;17.55;8.05;;;;;;;17.65;61.21;101048.69;4995055;28;100136;-84
2023/09/07 03:34:43;;;;;;;11.75;7.93;;;;;;;17.81;61.09;101065.59;5012734;28;96798;-83
2023/09/07 03:37:11;;;;;;;15.35;8.20;;;;;;;17.80;61.21;101074.50;5013273;28;97355;-83
2023/09/07 03:39:37;;;;;;;14.63;7.97;;;;;;;17.73;60.86;101067.75;5010883;28;100689;-83
2023/09/07 03:42:02;;;;;;;12.00;7.53;;;;;;;17.71;61.31;101064.31;5010875;28;100717;-84
2023/09/07 03:44:28;;;;;;;12.50;7.32;;;;;;;17.70;61.18;101072.34;5008428;28;96645;-83
2023/09/07 03:46:53;;;;;;;10.15;7.53;;;;;;;17.69;61.51;101082.13;5009699;28;96834;-83
2023/09/07 03:49:19;;;;;;;11.73;8.60;;;;;;;17.71;61.43;101076.72;5005606;28;98934;-84
2023/09/07 03:51:45;;;;;;;14.27;8.20;;;;;;;17.65;61.46;101069.94;5010713;28;99825;-83
2023/09/07 03:54:10;;;;;;;13.73;7.72;;;;;;;17.67;61.11;101081.34;5010428;28;97044;-83
2023/09/07 03:56:36;;;;;;;10.82;8.10;;;;;;;17.61;61.46;101073.69;5010861;28;97274;-83
2023/09/07 03:59:02;;;;;;;20.38;9.15;;;;;;;17.65;61.48;101080.56;5008502;28;98709;-84
2023/09/07 04:01:28;;;;;;;19.23;10.38;;;;;;;17.60;61.35;101070.19;5011093;28;100164;-84
2023/09/07 04:03:54;;;;;;;14.80;10.13;;;;;;;17.61;61.56;101073.69;5009337;28;96900;-84
2023/09/07 04:06:19;;;;;;;14.88;10.00;;;;;;;17.53;61.45;101057.28;5012757;28;96874;-84
2023/09/07 04:08:45;;;;;;;13.15;10.15;;;;;;;17.64;61.17;101076.19;5011246;28;97937;-83
2023/09/07 04:11:10;;;;;;;13.35;9.75;;;;;;;17.62;61.29;101078.06;5008951;28;99431;-84
2023/09/07 04:13:36;;;;;;;12.27;8.90;;;;;;;17.56;61.08;101079.22;5010620;28;96788;-83
2023/09/07 04:16:02;;;;;;;18.58;10.00;;;;;;;17.60;61.16;101080.81;5008060;28;97316;-83
2023/09/07 04:18:28;;;;;;;14.32;10.02;;;;;;;17.62;61.41;101080.72;5010384;28;100593;-83
2023/09/07 04:20:56;;;;;;;13.70;11.57;;;;;;;17.62;61.12;101091.31;5009383;28;98589;-82
2023/09/07 04:23:21;;;;;;;15.45;11.98;;;;;;;17.57;61.27;101094.22;5009901;28;96893;-81
2023/09/07 04:25:47;;;;;;;22.95;20.65;;;;;;;17.57;61.24;101096.00;5012202;28;96964;-81
2023/09/07 04:28:13;;;;;;;34.20;26.98;;;;;;;17.52;61.58;101088.28;5007687;28;100525;-81
2023/09/07 04:30:41;;;;;;;12.27;6.72;;;;;;;17.51;61.22;101091.91;5009353;28;100937;-80
2023/09/07 04:33:06;;;;;;;14.95;7.20;;;;;;;17.47;61.45;101095.63;5009586;28;96967;-82
2023/09/07 04:35:33;;;;;;;14.90;6.93;;;;;;;17.51;61.49;101094.56;5010339;28;96944;-81
2023/09/07 04:37:59;;;;;;;13.35;7.20;;;;;;;17.39;61.59;101095.16;5010274;28;100857;-81
2023/09/07 04:40:25;;;;;;;9.98;7.03;;;;;;;17.36;61.62;101097.94;5011282;28;100301;-81
2023/09/07 04:42:51;;;;;;;13.00;7.63;;;;;;;17.43;61.78;101112.66;5012051;28;96833;-82
2023/09/07 04:45:17;;;;;;;15.85;6.80;;;;;;;17.43;61.72;101110.00;5010021;28;96951;-81
2023/09/07 04:47:44;;;;;;;21.70;10.48;;;;;;;17.38;61.67;101112.88;5010227;28;100401;-83
2023/09/07 04:50:10;;;;;;;15.20;12.63;;;;;;;17.43;61.70;101108.19;5011626;28;98514;-82
2023/09/07 04:52:36;;;;;;;15.02;7.80;;;;;;;17.48;61.77;101113.25;5009988;28;97013;-82
2023/09/07 04:55:01;;;;;;;16.13;13.90;;;;;;;17.47;61.69;101105.38;5011745;28;96736;-82
2023/09/07 04:57:27;;;;;;;15.13;13.63;;;;;;;17.44;61.49;101106.41;5002866;28;98674;-81
2023/09/07 04:59:53;;;;;;;16.10;14.50;;;;;;;17.54;61.54;101101.47;5003845;28;98341;-81
2023/09/07 05:02:18;;;;;;;15.70;12.05;;;;;;;17.67;61.20;101101.72;4990602;28;96789;-81
2023/09/07 05:04:44;;;;;;;19.88;12.15;;;;;;;17.89;61.07;101107.69;5010948;28;97026;-81
2023/09/07 05:07:10;;;;;;;22.27;12.93;;;;;;;18.07;61.14;101108.50;5003473;28;100218;-81
2023/09/07 05:09:36;;;;;;;15.38;11.80;;;;;;;18.19;60.90;101107.00;4996526;28;100237;-81
2023/09/07 05:12:02;;;;;;;20.80;15.55;;;;;;;18.34;60.13;101108.81;5012863;28;96904;-81
2023/09/07 05:14:29;;;;;;;23.13;15.77;;;;;;;18.34;59.78;101087.56;5013187;28;97298;-81
2023/09/07 05:16:56;;;;;;;20.13;14.77;;;;;;;18.47;59.35;101117.88;5013022;28;100877;-81
2023/09/07 05:19:22;;;;;;;15.90;13.13;;;;;;;18.60;59.25;101117.19;5012755;28;100462;-81
2023/09/07 05:21:48;;;;;;;11.43;10.30;;;;;;;18.66;58.93;101114.19;5011939;28;97363;-81
2023/09/07 05:24:15;;;;;;;19.85;11.15;;;;;;;18.77;58.67;101111.84;5013305;28;97069;-81
2023/09/07 05:26:44;;;;;;;12.00;9.18;;;;;;;18.91;58.31;101116.38;5012522;28;100299;-81
2023/09/07 05:29:11;;;;;;;14.57;8.38;;;;;;;19.02;57.78;101123.75;5012350;28;100628;-81
2023/09/07 05:31:38;;;;;;;15.02;9.10;;;;;;;19.13;57.72;101124.84;5019970;28;96987;-80
2023/09/07 05:34:03;;;;;;;26.60;10.00;;;;;;;19.34;57.59;101122.75;5014180;28;97215;-81
2023/09/07 05:36:29;;;;;;;12.95;7.05;;;;;;;19.47;57.07;101140.69;5014113;28;98731;-81
2023/09/07 05:38:55;;;;;;;14.95;7.43;;;;;;;19.57;57.00;101141.84;5012407;28;100564;-81
2023/09/07 05:41:21;;;;;;;13.05;8.18;;;;;;;19.74;56.78;101138.22;5011894;28;97341;-81
2023/09/07 05:43:46;;;;;;;14.45;7.50;;;;;;;19.90;56.34;101136.38;5012227;28;97303;-81
2023/09/07 05:46:12;;;;;;;16.42;7.10;;;;;;;20.13;55.79;101127.84;5013551;28;99320;-81
2023/09/07 05:48:38;;;;;;;13.02;7.72;;;;;;;20.39;55.07;101129.81;5012385;28;97309;-80
2023/09/07 05:51:03;;;;;;;14.00;7.85;;;;;;;20.47;54.26;101128.41;5014067;28;97377;-81
2023/09/07 05:53:29;;;;;;;13.00;7.40;;;;;;;20.53;54.46;101137.84;5013550;28;97264;-81
2023/09/07 05:55:54;;;;;;;13.13;8.60;;;;;;;20.74;54.04;101133.84;5029081;28;100642;-81
2023/09/07 05:58:20;;;;;;;13.30;8.07;;;;;;;21.14;53.51;101143.75;5012207;28;100323;-81
2023/09/07 06:00:46;;;;;;;12.07;8.20;;;;;;;21.08;52.83;101144.16;5012196;28;97003;-80
2023/09/07 06:03:11;;;;;;;12.68;8.40;;;;;;;20.88;53.87;101148.09;5013275;28;96898;-80
2023/09/07 06:05:39;;;;;;;14.75;7.90;;;;;;;21.14;53.38;101133.06;5011810;28;100831;-80
2023/09/07 06:08:07;;;;;;;13.20;8.32;;;;;;;21.44;52.91;101131.09;5012303;28;99701;-71
2023/09/07 06:10:33;;;;;;;18.02;8.65;;;;;;;21.22;52.94;101141.44;5011780;28;97290;-71
2023/09/07 06:12:59;;;;;;;15.35;7.90;;;;;;;21.53;52.91;101142.97;5012544;28;97667;-71
2023/09/07 06:15:25;;;;;;;14.15;7.45;;;;;;;22.29;51.68;101134.19;5011729;28;100909;-70
2023/09/07 06:17:51;;;;;;;12.32;7.80;;;;;;;22.93;49.96;101144.78;5010980;28;100388;-71
2023/09/07 06:20:19;;;;;;;14.50;7.47;;;;;;;23.67;48.40;101142.00;5011703;28;96803;-71
2023/09/07 06:22:45;;;;;;;13.15;7.72;;;;;;;24.58;46.66;101146.56;5012763;28;96839;-71
2023/09/07 06:25:10;;;;;;;16.35;7.97;;;;;;;25.63;44.79;101144.25;5012533;28;99326;-70
2023/09/07 06:27:36;;;;;;;18.88;9.18;;;;;;;26.83;42.12;101146.34;5013080;28;98223;-70
2023/09/07 06:30:02;;;;;;;18.10;9.05;;;;;;;27.48;41.10;101140.50;5012121;28;96973;-70
2023/09/07 06:32:29;;;;;;;10.45;7.50;;;;;;;28.55;38.96;101143.00;5012566;28;96927;-70
2023/09/07 06:34:54;;;;;;;13.32;8.25;;;;;;;29.91;36.51;101139.34;5012632;28;97345;-70
2023/09/07 06:37:21;;;;;;;18.58;11.20;;;;;;;31.00;34.48;101136.84;5011401;28;100330;-70
2023/09/07 06:39:46;;;;;;;12.70;9.35;;;;;;;32.44;32.66;101139.03;5011909;28;96745;-71
2023/09/07 06:42:12;;;;;;;18.15;9.63;;;;;;;33.56;30.75;101142.34;5006880;28;96930;-70
2023/09/07 06:44:45;;;;;;;12.07;7.70;;;;;;;34.34;30.07;101141.09;5007694;28;96794;-70
2023/09/07 06:47:11;;;;;;;20.25;8.63;;;;;;;34.74;29.12;101143.53;5011827;28;100284;-70
2023/09/07 06:49:40;;;;;;;12.93;9.07;;;;;;;34.97;28.22;101143.34;5011448;28;97143;-70
2023/09/07 06:52:06;;;;;;;18.60;9.48;;;;;;;34.79;28.63;101150.09;5011907;28;96904;-71
2023/09/07 06:54:34;;;;;;;18.10;11.43;;;;;;;34.63;28.45;101150.31;4994418;28;100439;-71
2023/09/07 06:56:59;;;;;;;18.00;10.93;;;;;;;35.96;27.73;101148.97;5010871;28;98267;-70
2023/09/07 06:59:25;;;;;;;13.70;8.65;;;;;;;37.21;26.37;101155.25;5012264;28;97183;-71
2023/09/07 07:01:50;;;;;;;15.25;9.65;;;;;;;36.81;26.49;101157.88;5008839;28;96993;-71
2023/09/07 07:04:16;;;;;;;14.23;9.18;;;;;;;37.30;25.49;101165.81;5024058;28;100454;-71
2023/09/07 07:06:42;;;;;;;20.08;9.10;;;;;;;37.80;25.23;101160.81;5011335;28;100644;-71
2023/09/07 07:09:09;;;;;;;14.73;8.35;;;;;;;37.45;25.62;101162.06;5010725;28;97002;-71
2023/09/07 07:11:35;;;;;;;15.10;10.48;;;;;;;38.23;24.34;101163.09;5011380;28;97369;-71
2023/09/07 07:14:01;;;;;;;19.48;10.02;;;;;;;38.67;24.08;101157.94;5019130;28;100268;-72
2023/09/07 07:16:27;;;;;;;11.93;9.30;;;;;;;39.20;23.99;101152.16;5020055;28;99999;-71
2023/09/07 07:18:52;;;;;;;16.23;10.82;;;;;;;39.78;23.39;101165.72;5010116;28;96873;-71
2023/09/07 07:21:18;;;;;;;13.85;9.88;;;;;;;40.33;23.03;101159.47;5008984;28;96992;-80
2023/09/07 07:23:43;;;;;;;13.30;9.77;;;;;;;41.00;22.27;101165.00;5008254;28;100862;-80
2023/09/07 07:26:09;;;;;;;15.35;9.18;;;;;;;41.46;21.94;101162.66;5010446;28;98743;-80
2023/09/07 07:28:35;;;;;;;19.23;11.50;;;;;;;41.30;21.92;101164.16;5011760;28;96934;-81
2023/09/07 07:31:10;;;;;;;15.45;10.70;;;;;;;41.49;21.66;101162.22;5010414;28;97077;-82
2023/09/07 07:33:37;;;;;;;13.52;8.00;;;;;;;41.59;21.44;101165.19;5003538;28;100370;-83
2023/09/07 07:36:04;;;;;;;14.40;7.75;;;;;;;41.84;20.89;101165.81;5010853;28;100173;-82
2023/09/07 07:38:30;;;;;;;13.38;7.80;;;;;;;42.25;20.77;101160.44;5012510;28;96833;-78
2023/09/07 07:40:56;;;;;;;11.07;7.97;;;;;;;41.93;20.97;101155.31;5009321;28;96893;-78
2023/09/07 07:43:22;;;;;;;16.15;7.80;;;;;;;40.69;21.94;101160.53;5010524;28;100799;-81
2023/09/07 07:45:47;;;;;;;13.35;7.90;;;;;;;38.96;23.54;101156.56;5011703;28;98869;-79
2023/09/07 07:48:13;;;;;;;11.68;8.13;;;;;;;41.90;21.80;101168.72;5009940;28;97288;-79
2023/09/07 07:50:41;;;;;;;30.33;27.80;;;;;;;41.33;21.35;101167.28;5009925;28;96987;-78
2023/09/07 07:53:08;;;;;;;12.68;6.90;;;;;;;42.72;20.20;101163.09;4992556;28;99625;-78
2023/09/07 07:55:38;;;;;;;12.50;7.72;;;;;;;40.90;21.69;101168.31;5010762;28;97269;-81
2023/09/07 07:58:07;;;;;;;11.23;7.88;;;;;;;43.68;20.48;101162.38;5009353;28;97219;-77
2023/09/07 08:00:36;;;;;;;;;;;;;;;44.20;19.39;101156.53;5009068;28;96829;-74
2023/09/07 08:03:03;;;;;;;11.13;7.20;;;;;;;44.53;19.22;101161.13;5010347;28;100220;-74
2023/09/07 08:05:29;;;;;;;8.80;7.13;;;;;;;45.61;18.91;101163.91;5026853;28;100614;-75
2023/09/07 08:07:56;;;;;;;10.10;6.93;;;;;;;43.91;18.72;101166.88;5009965;28;97078;-74
2023/09/07 08:10:22;;;;;;;8.38;6.68;;;;;;;42.66;19.92;101164.06;5010074;28;96843;-74
2023/09/07 08:12:48;;;;;;;10.25;6.90;;;;;;;43.08;19.99;101159.09;5007148;28;98710;-75
2023/09/07 08:15:14;;;;;;;8.32;6.57;;;;;;;44.37;19.23;101162.06;5011280;28;97064;-74
2023/09/07 08:17:40;;;;;;;10.63;7.45;;;;;;;45.23;18.52;101166.91;5008175;28;96897;-74
2023/09/07 08:20:07;;;;;;;11.45;7.35;;;;;;;46.16;18.03;101160.97;5006559;28;97175;-74
2023/09/07 08:22:36;;;;;;;9.85;7.53;;;;;;;45.95;17.67;101165.56;5005699;28;100604;-74
2023/09/07 08:25:02;;;;;;;9.85;6.70;;;;;;;45.54;17.95;101162.50;5009647;28;99954;-74
2023/09/07 08:27:28;;;;;;;10.38;6.93;;;;;;;45.78;17.46;101154.63;5010260;28;96866;-73
2023/09/07 08:29:55;;;;;;;9.77;7.35;;;;;;;46.75;17.28;101160.69;5010236;28;97176;-74
2023/09/07 08:32:21;;;;;;;9.98;7.00;;;;;;;45.01;17.81;101159.47;5005221;28;97694;-74
2023/09/07 08:34:46;;;;;;;11.15;7.07;;;;;;;46.22;17.34;101159.88;5010121;28;97304;-74
2023/09/07 08:37:12;;;;;;;12.15;7.50;;;;;;;46.06;17.23;101165.34;5011448;28;97336;-74
2023/09/07 08:39:39;;;;;;;13.13;6.90;;;;;;;47.31;16.92;101155.22;5011219;28;96836;-73
2023/09/07 08:42:05;;;;;;;8.37;6.67;;;;;;;47.95;16.72;101152.97;5026252;28;98909;-74
2023/09/07 08:44:33;;;;;;;25.13;23.15;;;;;;;48.30;15.73;101157.59;5010837;28;98422;-74
2023/09/07 08:46:59;;;;;;;19.40;17.67;;;;;;;48.58;15.66;101139.38;5011957;28;96814;-74
2023/09/07 08:49:25;;;;;;;9.30;6.50;;;;;;;48.95;15.58;101146.41;5011746;28;96852;-74
2023/09/07 08:51:51;;;;;;;7.18;5.57;;;;;;;47.88;15.52;101144.91;5009631;28;98651;-73
2023/09/07 08:54:17;;;;;;;10.70;5.97;;;;;;;48.54;15.41;101141.09;4993554;28;98743;-73
2023/09/07 08:56:44;;;;;;;8.95;5.78;;;;;;;48.82;15.06;101145.09;5010027;28;96901;-73
2023/09/07 08:59:10;;;;;;;7.93;5.83;;;;;;;48.60;15.44;101145.50;5006389;28;96795;-73
2023/09/07 09:01:37;;;;;;;10.57;5.85;;;;;;;49.04;15.48;101149.41;5010108;28;98773;-73
2023/09/07 09:04:02;;;;;;;13.13;7.07;;;;;;;49.47;14.72;101146.84;5011172;28;98428;-73
2023/09/07 09:06:28;;;;;;;8.32;5.57;;;;;;;49.76;14.63;101146.84;5010844;28;96759;-74
2023/09/07 09:08:55;;;;;;;9.70;5.85;;;;;;;49.18;14.78;101142.03;5011341;28;96863;-73
2023/09/07 09:11:22;;;;;;;7.30;5.65;;;;;;;48.91;14.92;101134.19;5010884;28;98929;-74
2023/09/07 09:13:48;;;;;;;6.82;5.38;;;;;;;50.42;14.17;101137.72;5010606;28;98349;-73
2023/09/07 09:16:14;;;;;;;7.22;5.50;;;;;;;50.82;13.63;101140.22;5006542;28;96819;-73
2023/09/07 09:18:49;;;;;;;9.32;5.43;;;;;;;49.75;14.06;101143.25;5010466;28;97032;-81
2023/09/07 09:21:16;;;;;;;6.65;4.72;;;;;;;49.36;13.97;101129.38;5008598;28;99156;-81
2023/09/07 09:23:43;;;;;;;7.30;4.75;;;;;;;47.56;14.53;101115.47;5010191;28;98687;-81
2023/09/07 09:26:08;;;;;;;6.15;5.40;;;;;;;47.01;15.61;101122.66;5005845;28;97095;-80
2023/09/07 09:28:34;;;;;;;5.72;5.03;;;;;;;48.78;14.58;101130.06;5010984;28;97021;-81
2023/09/07 09:31:01;;;;;;;6.22;5.13;;;;;;;47.09;15.27;101135.22;5008727;28;99075;-81
2023/09/07 09:33:30;;;;;;;6.65;4.97;;;;;;;47.68;15.06;101119.91;5010496;28;98682;-80
2023/09/07 09:35:56;;;;;;;5.00;4.32;;;;;;;45.81;15.57;101126.34;5011079;28;97277;-81
2023/09/07 09:38:22;;;;;;;4.70;4.30;;;;;;;47.00;15.34;101131.28;5011423;28;96928;-81
2023/09/07 09:40:47;;;;;;;9.95;4.43;;;;;;;46.23;15.53;101129.09;5008639;28;99031;-80
2023/09/07 09:43:13;;;;;;;6.55;4.50;;;;;;;45.85;15.79;101130.28;5011081;28;98642;-80
2023/09/07 09:45:39;;;;;;;6.15;4.28;;;;;;;44.05;17.11;101113.75;5010871;28;96924;-80
2023/09/07 09:48:09;;;;;;;10.45;4.70;;;;;;;41.05;19.44;101128.53;5011163;28;96865;-80
2023/09/07 09:50:37;;;;;;;5.18;4.40;;;;;;;41.87;19.37;101119.56;5003541;28;98676;-81
2023/09/07 09:53:06;;;;;;;5.72;4.03;;;;;;;38.80;21.00;101118.63;5009654;28;98669;-81
2023/09/07 09:55:32;;;;;;;4.80;4.30;;;;;;;36.99;22.86;101129.94;5013340;28;96959;-80
2023/09/07 09:57:58;;;;;;;6.38;4.18;;;;;;;37.13;23.48;101120.75;5014537;28;96901;-80
2023/09/07 10:00:26;;;;;;;5.93;4.43;;;;;;;37.15;23.53;101127.69;5010782;28;98840;-81
2023/09/07 10:02:55;;;;;;;9.18;4.43;;;;;;;36.86;23.58;101128.88;5014016;28;98934;-81
2023/09/07 10:05:20;;;;;;;12.77;5.05;;;;;;;36.17;24.36;101132.53;5014086;28;97226;-80
2023/09/07 10:07:50;;;;;;;4.75;3.85;;;;;;;34.35;25.76;101136.47;5014806;28;96856;-80
2023/09/07 10:10:18;;;;;;;9.00;4.57;;;;;;;34.35;26.34;101137.31;5012266;28;98568;-80
2023/09/07 10:12:45;;;;;;;9.77;4.82;;;;;;;33.87;26.88;101125.06;5012006;28;98669;-80
2023/09/07 10:15:24;;;;;;;21.88;7.55;;;;;;;32.91;27.62;101141.72;5011804;28;97132;-80
2023/09/07 10:17:50;;;;;;;12.52;4.57;;;;;;;32.74;27.86;101142.00;5012438;28;97269;-80
2023/09/07 10:20:22;;;;;;;7.22;5.63;;;;;;;31.79;28.91;101134.56;5012176;28;99458;-80
2023/09/07 10:22:48;;;;;;;21.17;19.42;;;;;;;31.65;30.05;101129.81;5010111;28;98376;-79
2023/09/07 10:25:21;;;;;;;7.95;5.30;;;;;;;31.83;30.17;101138.66;5012243;28;96839;-80
2023/09/07 10:27:47;;;;;;;12.50;5.35;;;;;;;31.19;30.44;101134.88;5012131;28;97006;-80
2023/09/07 10:30:13;;;;;;;6.97;5.65;;;;;;;30.90;30.63;101126.19;5011725;28;99152;-80
2023/09/07 10:32:41;;;;;;;7.35;4.43;;;;;;;30.76;31.12;101115.94;5011889;28;98172;-80
2023/09/07 10:35:18;;;;;;;7.65;6.70;;;;;;;30.50;31.83;101134.13;5010343;28;97507;-79
2023/09/07 10:37:46;;;;;;;10.40;9.68;;;;;;;29.95;32.10;101128.03;5011686;28;98180;-79
2023/09/07 10:40:14;;;;;;;8.98;8.18;;;;;;;29.58;33.37;101120.13;5011098;28;98779;-72
2023/09/07 10:42:39;;;;;;;8.75;7.82;;;;;;;29.83;33.26;101126.59;5011533;28;98146;-72
2023/09/07 10:45:13;;;;;;;7.50;6.22;;;;;;;29.73;33.68;101121.31;5009894;28;97242;-71
2023/09/07 10:47:48;;;;;;;9.63;5.80;;;;;;;29.48;33.92;101117.50;5011042;28;96795;-71
2023/09/07 10:50:14;;;;;;;7.85;6.65;;;;;;;29.14;34.44;101130.03;5012275;28;98761;-72
2023/09/07 10:52:41;;;;;;;13.43;12.40;;;;;;;28.96;35.04;101124.59;5012723;28;98399;-71
2023/09/07 10:55:10;;;;;;;13.98;9.27;;;;;;;28.81;35.30;101121.56;5012543;28;96836;-72
2023/09/07 10:57:46;;;;;;;11.90;10.70;;;;;;;28.58;34.98;101105.75;5010010;28;97353;-71
2023/09/07 11:00:13;;;;;;;7.75;4.47;;;;;;;28.94;34.54;101107.66;5011896;28;98734;-71
2023/09/07 11:02:42;;;;;;;6.55;4.22;;;;;;;28.63;35.21;101108.00;5013130;28;98328;-72
2023/09/07 11:05:08;;;;;;;6.78;4.20;;;;;;;28.75;35.44;101112.19;5011993;28;97126;-72
2023/09/07 11:07:34;;;;;;;5.20;4.10;;;;;;;28.91;35.39;101107.97;5016568;27;97185;-72
2023/09/07 11:10:00;;;;;;;5.72;4.32;;;;;;;29.03;35.50;101110.34;5012026;28;98944;-71